createdAt,value
2022-08-17T00:02:38.347Z,100880.0
2022-08-17T00:07:35.825Z,100890.0
2022-08-17T00:12:43.210Z,100870.0
2022-08-17T00:17:35.826Z,100880.0
2022-08-17T00:22:36.758Z,100860.0
2022-08-17T00:27:35.832Z,100860.0
2022-08-17T00:33:13.956Z,100850.0
2022-08-17T00:37:35.836Z,100860.0
2022-08-17T00:42:35.847Z,100850.0
2022-08-17T00:47:35.838Z,100860.0
2022-08-17T00:52:35.842Z,100850.0
2022-08-17T00:57:35.837Z,100840.0
2022-08-17T01:02:42.211Z,100840.0
2022-08-17T01:07:37.974Z,100850.0
2022-08-17T01:12:35.843Z,100840.0
2022-08-17T01:17:35.844Z,100830.0
2022-08-17T01:22:35.844Z,100830.0
2022-08-17T01:27:35.861Z,100840.0
2022-08-17T01:32:35.846Z,100830.0
2022-08-17T01:37:35.854Z,100820.0
2022-08-17T01:42:35.851Z,100810.0
2022-08-17T01:47:36.061Z,100800.0
2022-08-17T01:52:35.857Z,100800.0
2022-08-17T01:57:35.857Z,100800.0
2022-08-17T02:02:35.861Z,100800.0
2022-08-17T02:07:59.356Z,100810.0
2022-08-17T02:12:39.105Z,100800.0
2022-08-17T02:17:35.863Z,100800.0
2022-08-17T02:22:35.866Z,100800.0
2022-08-17T02:27:35.874Z,100800.0
2022-08-17T02:32:35.868Z,100790.0
2022-08-17T02:37:35.864Z,100800.0
2022-08-17T02:42:35.867Z,100790.0
2022-08-17T02:47:35.870Z,100790.0
2022-08-17T02:52:43.139Z,100790.0
2022-08-17T02:57:35.880Z,100770.0
2022-08-17T03:02:35.878Z,100770.0
2022-08-17T03:07:35.882Z,100760.0
2022-08-17T03:12:35.884Z,100770.0
2022-08-17T03:17:35.921Z,100770.0
2022-08-17T03:22:38.251Z,100770.0
2022-08-17T03:27:35.891Z,100770.0
2022-08-17T03:32:35.888Z,100770.0
2022-08-17T03:42:35.900Z,100780.0
2022-08-17T03:47:35.894Z,100770.0
2022-08-17T03:52:35.919Z,100770.0
2022-08-17T03:57:35.896Z,100780.0
2022-08-17T04:02:35.904Z,100770.0
2022-08-17T04:07:35.904Z,100780.0
2022-08-17T04:12:35.913Z,100780.0
2022-08-17T04:17:35.907Z,100780.0
2022-08-17T04:27:35.912Z,100790.0
2022-08-17T04:33:03.813Z,100790.0
2022-08-17T04:37:35.915Z,100790.0
2022-08-17T04:42:35.917Z,100800.0
2022-08-17T04:47:35.921Z,100790.0
2022-08-17T04:52:43.374Z,100790.0
2022-08-17T04:57:39.419Z,100780.0
2022-08-17T05:02:35.926Z,100800.0
2022-08-17T05:07:35.924Z,100810.0
2022-08-17T05:12:35.926Z,100840.0
2022-08-17T05:17:35.929Z,100890.0
2022-08-17T05:22:35.939Z,100860.0
2022-08-17T05:27:36.118Z,100870.0
2022-08-17T05:32:38.921Z,100870.0
2022-08-17T05:37:35.940Z,100870.0
2022-08-17T05:42:35.942Z,100860.0
2022-08-17T05:52:35.963Z,100860.0
2022-08-17T05:57:35.944Z,100850.0
2022-08-17T06:02:35.947Z,100840.0
2022-08-17T06:07:35.955Z,100840.0
2022-08-17T06:12:35.951Z,100850.0
2022-08-17T06:17:35.948Z,100840.0
2022-08-17T06:22:35.950Z,100840.0
2022-08-17T06:27:35.964Z,100850.0
2022-08-17T06:32:35.962Z,100860.0
2022-08-17T06:37:35.962Z,100860.0
2022-08-17T06:43:02.206Z,100850.0
2022-08-17T06:47:35.973Z,100840.0
2022-08-17T06:52:45.726Z,100840.0
2022-08-17T06:57:35.970Z,100850.0
2022-08-17T07:02:51.555Z,100860.0
2022-08-17T07:07:35.980Z,100860.0
2022-08-17T07:12:35.979Z,100880.0
2022-08-17T07:17:46.574Z,100880.0
2022-08-17T07:22:59.407Z,100900.0
2022-08-17T07:27:35.989Z,100890.0
2022-08-17T07:32:35.988Z,100900.0
2022-08-17T07:37:35.993Z,100900.0
2022-08-17T07:42:35.995Z,100890.0
2022-08-17T07:47:35.992Z,100890.0
2022-08-17T07:52:51.496Z,100900.0
2022-08-17T07:57:35.995Z,100920.0
2022-08-17T08:02:36.003Z,100920.0
2022-08-17T08:07:36.007Z,100930.0
2022-08-17T08:12:36.032Z,100960.0
2022-08-17T08:17:36.005Z,101010.0
2022-08-17T08:22:36.011Z,100990.0
2022-08-17T08:27:36.012Z,100870.0
2022-08-17T08:32:36.010Z,100820.0
2022-08-17T08:37:42.002Z,100870.0
2022-08-17T08:42:36.010Z,100890.0
2022-08-17T08:47:36.014Z,100910.0
2022-08-17T08:52:36.023Z,100930.0
2022-08-17T08:57:36.022Z,100910.0
2022-08-17T09:02:36.030Z,100910.0
2022-08-17T09:07:36.028Z,100900.0
2022-08-17T09:12:36.034Z,100900.0
2022-08-17T09:17:36.042Z,100920.0
2022-08-17T09:22:36.045Z,100930.0
2022-08-17T09:27:36.046Z,100940.0
2022-08-17T09:32:36.044Z,100940.0
2022-08-17T09:37:36.059Z,100950.0
2022-08-17T09:42:36.047Z,100950.0
2022-08-17T09:47:36.057Z,100960.0
2022-08-17T09:52:36.048Z,100970.0
2022-08-17T09:57:36.053Z,100990.0
2022-08-17T10:02:36.054Z,101010.0
2022-08-17T10:07:36.058Z,101010.0
2022-08-17T10:12:36.065Z,101010.0
2022-08-17T10:17:36.062Z,101020.0
2022-08-17T10:22:38.125Z,101010.0
2022-08-17T10:27:36.065Z,101010.0
2022-08-17T10:32:36.068Z,101010.0
2022-08-17T10:37:36.066Z,101010.0
2022-08-17T10:42:36.073Z,101010.0
2022-08-17T10:47:52.855Z,101010.0
2022-08-17T10:52:36.069Z,101000.0
2022-08-17T11:02:36.081Z,100990.0
2022-08-17T11:12:36.083Z,100990.0
2022-08-17T11:17:36.106Z,100990.0
2022-08-17T11:22:36.085Z,100990.0
2022-08-17T11:27:36.081Z,101000.0
2022-08-17T11:32:36.086Z,100990.0
2022-08-17T11:37:36.085Z,101010.0
2022-08-17T11:42:36.090Z,101010.0
2022-08-17T11:47:36.175Z,101010.0
2022-08-17T11:52:36.093Z,101010.0
2022-08-17T11:57:36.096Z,101020.0
2022-08-17T12:02:36.162Z,101030.0
2022-08-17T12:07:36.104Z,101040.0
2022-08-17T12:12:36.106Z,101060.0
2022-08-17T12:17:52.227Z,101070.0
2022-08-17T12:22:36.106Z,101060.0
2022-08-17T12:28:04.910Z,101060.0
2022-08-17T12:32:36.105Z,101060.0
2022-08-17T12:42:36.112Z,101050.0
2022-08-17T12:47:36.109Z,101050.0
2022-08-17T12:52:36.112Z,101040.0
2022-08-17T12:57:36.114Z,101040.0
2022-08-17T13:02:36.120Z,101040.0
2022-08-17T13:07:49.643Z,101030.0
2022-08-17T13:12:49.473Z,101040.0
2022-08-17T13:17:36.125Z,101040.0
2022-08-17T13:22:36.127Z,101040.0
2022-08-17T13:27:36.125Z,101040.0
2022-08-17T13:32:36.142Z,101050.0
2022-08-17T13:37:36.129Z,101050.0
2022-08-17T13:42:53.101Z,101050.0
2022-08-17T13:47:36.130Z,101040.0
2022-08-17T13:52:36.131Z,101040.0
2022-08-17T13:57:36.136Z,101020.0
2022-08-17T14:02:36.142Z,101020.0
2022-08-17T14:07:36.141Z,101030.0
2022-08-17T14:12:36.152Z,101040.0
2022-08-17T14:22:36.148Z,101020.0
2022-08-17T14:27:43.550Z,101020.0
2022-08-17T14:32:36.153Z,101030.0
2022-08-17T14:37:36.155Z,101020.0
2022-08-17T14:42:36.162Z,101020.0
2022-08-17T14:47:36.159Z,101020.0
2022-08-17T14:52:36.158Z,101010.0
2022-08-17T14:57:36.156Z,101010.0
2022-08-17T15:02:36.166Z,101000.0
2022-08-17T15:07:36.174Z,101010.0
2022-08-17T15:22:36.198Z,101000.0
2022-08-17T15:27:36.175Z,101010.0
2022-08-17T15:32:51.563Z,101000.0
2022-08-17T15:37:36.182Z,101010.0
2022-08-17T15:42:36.175Z,101010.0
2022-08-17T15:47:49.715Z,101010.0
2022-08-17T15:52:36.185Z,101020.0
2022-08-17T15:57:36.188Z,101020.0
2022-08-17T16:03:45.508Z,101020.0
2022-08-17T16:07:36.190Z,101010.0
2022-08-17T16:12:36.205Z,101000.0
2022-08-17T16:17:40.331Z,101000.0
2022-08-17T16:22:36.196Z,101000.0
2022-08-17T16:27:36.201Z,101020.0
2022-08-17T16:32:36.203Z,101020.0
2022-08-17T16:37:36.202Z,101030.0
2022-08-17T16:42:36.209Z,101030.0
2022-08-17T16:52:36.218Z,101020.0
2022-08-17T16:57:36.210Z,101030.0
2022-08-17T17:02:36.216Z,101030.0
2022-08-17T17:07:36.215Z,101040.0
2022-08-17T17:13:01.318Z,101030.0
2022-08-17T17:17:36.215Z,101030.0
2022-08-17T17:22:36.222Z,101040.0
2022-08-17T17:27:36.220Z,101030.0
2022-08-17T17:32:36.221Z,101030.0
2022-08-17T17:37:36.228Z,101030.0
2022-08-17T17:42:36.227Z,101040.0
2022-08-17T17:47:36.222Z,101040.0
2022-08-17T17:52:36.264Z,101050.0
2022-08-17T17:57:36.228Z,101040.0
2022-08-17T18:07:36.231Z,101070.0
2022-08-17T18:12:36.233Z,101070.0
2022-08-17T18:17:36.236Z,101080.0
2022-08-17T18:22:36.238Z,101080.0
2022-08-17T18:27:36.238Z,101090.0
2022-08-17T18:32:36.240Z,101090.0
2022-08-17T18:37:36.241Z,101090.0
2022-08-17T18:42:36.246Z,101080.0
2022-08-17T18:47:36.250Z,101080.0
2022-08-17T18:52:36.243Z,101080.0
2022-08-17T18:57:36.244Z,101080.0
2022-08-17T19:07:36.253Z,101110.0
2022-08-17T19:22:36.252Z,101110.0
2022-08-17T19:27:57.503Z,101110.0
2022-08-17T19:32:49.612Z,101120.0
2022-08-17T19:37:36.258Z,101120.0
2022-08-17T19:42:36.256Z,101130.0
2022-08-17T19:47:54.408Z,101130.0
2022-08-17T19:52:36.259Z,101130.0
2022-08-17T19:57:36.257Z,101130.0
2022-08-17T20:02:36.259Z,101120.0
2022-08-17T20:07:36.261Z,101140.0
2022-08-17T20:12:36.262Z,101140.0
2022-08-17T20:17:36.268Z,101140.0
2022-08-17T20:22:49.368Z,101140.0
2022-08-17T20:32:36.274Z,101150.0
2022-08-17T20:37:36.273Z,101140.0
2022-08-17T20:42:36.279Z,101140.0
2022-08-17T20:48:15.186Z,101130.0
2022-08-17T20:52:36.281Z,101140.0
2022-08-17T20:57:36.280Z,101140.0
2022-08-17T21:02:49.680Z,101120.0
2022-08-17T21:07:42.747Z,101120.0
2022-08-17T21:12:36.285Z,101130.0
2022-08-17T21:17:36.284Z,101130.0
2022-08-17T21:22:36.301Z,101130.0
2022-08-17T21:32:36.296Z,101140.0
2022-08-17T21:37:36.300Z,101140.0
2022-08-17T21:42:36.298Z,101150.0
2022-08-17T21:47:49.911Z,101150.0
2022-08-17T21:52:36.311Z,101150.0
2022-08-17T21:57:36.323Z,101150.0
2022-08-17T22:02:36.317Z,101150.0
2022-08-17T22:07:36.313Z,101140.0
2022-08-17T22:12:49.668Z,101150.0
2022-08-17T22:17:36.316Z,101160.0
2022-08-17T22:22:36.317Z,101180.0
2022-08-17T22:27:49.815Z,101170.0
2022-08-17T22:32:36.318Z,101170.0
2022-08-17T22:37:49.826Z,101170.0
2022-08-17T22:42:49.672Z,101180.0
2022-08-17T22:47:36.325Z,101170.0
2022-08-17T22:52:36.338Z,101170.0
2022-08-17T22:57:36.326Z,101170.0
2022-08-17T23:02:36.404Z,101160.0
2022-08-17T23:07:36.352Z,101150.0
2022-08-17T23:12:36.336Z,101170.0
2022-08-17T23:17:37.560Z,101170.0
2022-08-17T23:22:36.334Z,101170.0
2022-08-17T23:32:36.340Z,101170.0
2022-08-17T23:37:36.353Z,101160.0
2022-08-17T23:42:36.352Z,101170.0
2022-08-17T23:47:36.342Z,101170.0
2022-08-17T23:52:36.343Z,101180.0
2022-08-17T23:57:36.350Z,101170.0
